sensor_id;sensor_type;location;lat;lon;timestamp;P1;durP1;ratioP1;P2;durP2;ratioP2
72590;SDS011;60625;51.212;5.952;2022-10-22T00:03:47;7.90;;;2.10;;
72590;SDS011;60625;51.212;5.952;2022-10-22T00:08:47;9.20;;;2.40;;
72590;SDS011;60625;51.212;5.952;2022-10-22T00:13:48;9.40;;;2.50;;
72590;SDS011;60625;51.212;5.952;2022-10-22T00:18:48;8.10;;;2.20;;
72590;SDS011;60625;51.212;5.952;2022-10-22T00:23:49;6.40;;;2.00;;
72590;SDS011;60625;51.212;5.952;2022-10-22T00:28:49;9.20;;;1.80;;
72590;SDS011;60625;51.212;5.952;2022-10-22T00:33:50;7.20;;;2.50;;
72590;SDS011;60625;51.212;5.952;2022-10-22T00:38:50;9.50;;;1.90;;
72590;SDS011;60625;51.212;5.952;2022-10-22T00:43:59;10.60;;;1.90;;
72590;SDS011;60625;51.212;5.952;2022-10-22T00:49:03;5.80;;;1.90;;
72590;SDS011;60625;51.212;5.952;2022-10-22T00:54:05;9.10;;;2.40;;
72590;SDS011;60625;51.212;5.952;2022-10-22T00:59:07;6.80;;;2.20;;
72590;SDS011;60625;51.212;5.952;2022-10-22T01:04:08;7.70;;;2.00;;
72590;SDS011;60625;51.212;5.952;2022-10-22T01:19:41;5.90;;;2.20;;
72590;SDS011;60625;51.212;5.952;2022-10-22T01:25:27;6.00;;;2.10;;
72590;SDS011;60625;51.212;5.952;2022-10-22T01:30:30;9.40;;;2.20;;
72590;SDS011;60625;51.212;5.952;2022-10-22T01:35:33;6.50;;;2.50;;
72590;SDS011;60625;51.212;5.952;2022-10-22T01:40:37;7.00;;;2.20;;
72590;SDS011;60625;51.212;5.952;2022-10-22T01:45:42;8.40;;;1.90;;
72590;SDS011;60625;51.212;5.952;2022-10-22T01:51:11;6.60;;;2.10;;
72590;SDS011;60625;51.212;5.952;2022-10-22T02:07:04;7.40;;;1.90;;
72590;SDS011;60625;51.212;5.952;2022-10-22T02:12:07;7.40;;;2.80;;
72590;SDS011;60625;51.212;5.952;2022-10-22T02:17:14;8.30;;;2.60;;
72590;SDS011;60625;51.212;5.952;2022-10-22T02:22:16;5.70;;;2.20;;
72590;SDS011;60625;51.212;5.952;2022-10-22T02:27:32;6.60;;;2.30;;
72590;SDS011;60625;51.212;5.952;2022-10-22T02:37:52;6.00;;;2.60;;
72590;SDS011;60625;51.212;5.952;2022-10-22T02:42:54;8.90;;;3.10;;
72590;SDS011;60625;51.212;5.952;2022-10-22T02:47:55;8.10;;;2.60;;
72590;SDS011;60625;51.212;5.952;2022-10-22T02:52:56;6.90;;;2.40;;
72590;SDS011;60625;51.212;5.952;2022-10-22T02:57:56;8.80;;;2.80;;
72590;SDS011;60625;51.212;5.952;2022-10-22T03:02:57;10.40;;;2.80;;
72590;SDS011;60625;51.212;5.952;2022-10-22T03:07:57;9.00;;;3.00;;
72590;SDS011;60625;51.212;5.952;2022-10-22T03:12:57;7.40;;;2.70;;
72590;SDS011;60625;51.212;5.952;2022-10-22T03:17:58;8.60;;;2.60;;
72590;SDS011;60625;51.212;5.952;2022-10-22T03:22:59;10.30;;;2.20;;
72590;SDS011;60625;51.212;5.952;2022-10-22T03:28:04;7.20;;;2.40;;
72590;SDS011;60625;51.212;5.952;2022-10-22T03:33:06;9.40;;;2.80;;
72590;SDS011;60625;51.212;5.952;2022-10-22T03:38:07;11.60;;;3.40;;
72590;SDS011;60625;51.212;5.952;2022-10-22T03:43:07;8.80;;;3.00;;
72590;SDS011;60625;51.212;5.952;2022-10-22T03:48:08;10.70;;;3.20;;
72590;SDS011;60625;51.212;5.952;2022-10-22T03:53:09;7.30;;;2.30;;
72590;SDS011;60625;51.212;5.952;2022-10-22T03:58:10;6.60;;;2.70;;
72590;SDS011;60625;51.212;5.952;2022-10-22T04:03:10;9.00;;;3.20;;
72590;SDS011;60625;51.212;5.952;2022-10-22T04:08:10;6.60;;;2.60;;
72590;SDS011;60625;51.212;5.952;2022-10-22T04:13:11;6.90;;;3.20;;
72590;SDS011;60625;51.212;5.952;2022-10-22T04:18:11;6.50;;;2.50;;
72590;SDS011;60625;51.212;5.952;2022-10-22T04:23:12;7.50;;;2.60;;
72590;SDS011;60625;51.212;5.952;2022-10-22T04:28:13;11.00;;;3.60;;
72590;SDS011;60625;51.212;5.952;2022-10-22T04:33:13;7.10;;;2.80;;
72590;SDS011;60625;51.212;5.952;2022-10-22T04:38:14;8.50;;;2.80;;
72590;SDS011;60625;51.212;5.952;2022-10-22T04:43:14;9.90;;;2.80;;
72590;SDS011;60625;51.212;5.952;2022-10-22T04:48:15;18.90;;;3.10;;
72590;SDS011;60625;51.212;5.952;2022-10-22T04:53:15;7.40;;;3.00;;
72590;SDS011;60625;51.212;5.952;2022-10-22T04:58:16;7.80;;;2.90;;
72590;SDS011;60625;51.212;5.952;2022-10-22T05:03:16;11.00;;;3.00;;
72590;SDS011;60625;51.212;5.952;2022-10-22T05:08:16;11.20;;;2.70;;
72590;SDS011;60625;51.212;5.952;2022-10-22T05:13:17;7.70;;;2.90;;
72590;SDS011;60625;51.212;5.952;2022-10-22T05:18:17;10.80;;;3.40;;
72590;SDS011;60625;51.212;5.952;2022-10-22T05:23:18;12.60;;;3.20;;
72590;SDS011;60625;51.212;5.952;2022-10-22T05:28:18;8.00;;;3.30;;
72590;SDS011;60625;51.212;5.952;2022-10-22T05:33:19;10.60;;;3.00;;
72590;SDS011;60625;51.212;5.952;2022-10-22T05:38:22;12.90;;;3.40;;
72590;SDS011;60625;51.212;5.952;2022-10-22T05:43:23;7.80;;;2.30;;
72590;SDS011;60625;51.212;5.952;2022-10-22T05:48:23;8.00;;;2.20;;
72590;SDS011;60625;51.212;5.952;2022-10-22T05:53:23;7.60;;;2.30;;
72590;SDS011;60625;51.212;5.952;2022-10-22T05:58:24;10.00;;;2.30;;
72590;SDS011;60625;51.212;5.952;2022-10-22T06:03:25;5.80;;;2.30;;
72590;SDS011;60625;51.212;5.952;2022-10-22T06:08:25;9.00;;;2.20;;
72590;SDS011;60625;51.212;5.952;2022-10-22T06:13:26;8.00;;;1.80;;
72590;SDS011;60625;51.212;5.952;2022-10-22T06:18:26;6.80;;;1.80;;
72590;SDS011;60625;51.212;5.952;2022-10-22T06:23:27;6.20;;;1.90;;
72590;SDS011;60625;51.212;5.952;2022-10-22T06:28:28;10.20;;;2.30;;
72590;SDS011;60625;51.212;5.952;2022-10-22T06:33:30;9.50;;;1.90;;
72590;SDS011;60625;51.212;5.952;2022-10-22T06:38:32;13.20;;;2.80;;
72590;SDS011;60625;51.212;5.952;2022-10-22T06:43:32;8.10;;;1.50;;
72590;SDS011;60625;51.212;5.952;2022-10-22T06:48:33;6.70;;;1.60;;
72590;SDS011;60625;51.212;5.952;2022-10-22T06:53:35;8.30;;;2.00;;
72590;SDS011;60625;51.212;5.952;2022-10-22T06:58:37;8.70;;;1.30;;
72590;SDS011;60625;51.212;5.952;2022-10-22T07:03:39;6.30;;;1.10;;
72590;SDS011;60625;51.212;5.952;2022-10-22T07:08:41;13.20;;;1.80;;
72590;SDS011;60625;51.212;5.952;2022-10-22T07:13:42;11.60;;;1.70;;
72590;SDS011;60625;51.212;5.952;2022-10-22T07:18:43;20.90;;;1.80;;
72590;SDS011;60625;51.212;5.952;2022-10-22T07:23:45;9.50;;;1.30;;
72590;SDS011;60625;51.212;5.952;2022-10-22T07:28:46;12.10;;;1.70;;
72590;SDS011;60625;51.212;5.952;2022-10-22T07:33:47;11.00;;;1.90;;
72590;SDS011;60625;51.212;5.952;2022-10-22T07:38:53;9.70;;;1.70;;
72590;SDS011;60625;51.212;5.952;2022-10-22T07:43:56;7.50;;;1.90;;
72590;SDS011;60625;51.212;5.952;2022-10-22T07:48:57;9.60;;;1.60;;
72590;SDS011;60625;51.212;5.952;2022-10-22T07:53:57;9.10;;;1.40;;
72590;SDS011;60625;51.212;5.952;2022-10-22T07:58:58;9.10;;;1.90;;
72590;SDS011;60625;51.212;5.952;2022-10-22T08:03:58;7.00;;;1.60;;
72590;SDS011;60625;51.212;5.952;2022-10-22T08:08:59;12.40;;;1.30;;
72590;SDS011;60625;51.212;5.952;2022-10-22T08:13:59;12.90;;;1.40;;
72590;SDS011;60625;51.212;5.952;2022-10-22T08:19:00;11.90;;;1.30;;
72590;SDS011;60625;51.212;5.952;2022-10-22T08:24:00;6.80;;;0.90;;
72590;SDS011;60625;51.212;5.952;2022-10-22T08:29:01;8.70;;;1.50;;
72590;SDS011;60625;51.212;5.952;2022-10-22T08:34:02;9.80;;;1.60;;
72590;SDS011;60625;51.212;5.952;2022-10-22T08:39:04;9.40;;;1.40;;
72590;SDS011;60625;51.212;5.952;2022-10-22T08:44:34;9.40;;;1.00;;
72590;SDS011;60625;51.212;5.952;2022-10-22T08:49:39;8.20;;;1.00;;
72590;SDS011;60625;51.212;5.952;2022-10-22T08:54:55;6.90;;;1.20;;
72590;SDS011;60625;51.212;5.952;2022-10-22T09:00:05;8.10;;;1.40;;
72590;SDS011;60625;51.212;5.952;2022-10-22T09:05:53;6.50;;;1.30;;
72590;SDS011;60625;51.212;5.952;2022-10-22T09:11:08;7.30;;;1.40;;
72590;SDS011;60625;51.212;5.952;2022-10-22T09:16:24;7.80;;;1.20;;
72590;SDS011;60625;51.212;5.952;2022-10-22T09:21:47;5.60;;;1.10;;
72590;SDS011;60625;51.212;5.952;2022-10-22T09:27:17;9.00;;;1.60;;
72590;SDS011;60625;51.212;5.952;2022-10-22T09:32:19;7.30;;;0.70;;
72590;SDS011;60625;51.212;5.952;2022-10-22T09:37:25;8.10;;;0.70;;
72590;SDS011;60625;51.212;5.952;2022-10-22T09:42:28;6.80;;;0.80;;
72590;SDS011;60625;51.212;5.952;2022-10-22T09:47:34;7.50;;;1.30;;
72590;SDS011;60625;51.212;5.952;2022-10-22T09:52:38;10.30;;;1.00;;
72590;SDS011;60625;51.212;5.952;2022-10-22T09:57:40;6.90;;;0.80;;
72590;SDS011;60625;51.212;5.952;2022-10-22T10:02:42;5.70;;;0.60;;
72590;SDS011;60625;51.212;5.952;2022-10-22T10:07:42;7.30;;;1.20;;
72590;SDS011;60625;51.212;5.952;2022-10-22T10:12:47;7.60;;;0.90;;
72590;SDS011;60625;51.212;5.952;2022-10-22T10:18:20;5.70;;;1.10;;
72590;SDS011;60625;51.212;5.952;2022-10-22T10:23:34;6.50;;;1.10;;
72590;SDS011;60625;51.212;5.952;2022-10-22T10:28:54;5.90;;;0.80;;
72590;SDS011;60625;51.212;5.952;2022-10-22T10:45:50;7.40;;;1.50;;
72590;SDS011;60625;51.212;5.952;2022-10-22T11:01:55;5.80;;;0.90;;
72590;SDS011;60625;51.212;5.952;2022-10-22T11:07:04;8.50;;;1.10;;
72590;SDS011;60625;51.212;5.952;2022-10-22T11:12:15;8.80;;;1.00;;
72590;SDS011;60625;51.212;5.952;2022-10-22T11:17:22;7.00;;;1.20;;
72590;SDS011;60625;51.212;5.952;2022-10-22T11:27:55;9.20;;;1.30;;
72590;SDS011;60625;51.212;5.952;2022-10-22T11:32:59;5.10;;;0.80;;
72590;SDS011;60625;51.212;5.952;2022-10-22T11:38:04;5.70;;;1.20;;
72590;SDS011;60625;51.212;5.952;2022-10-22T11:43:08;6.60;;;1.00;;
72590;SDS011;60625;51.212;5.952;2022-10-22T12:03:41;6.70;;;1.10;;
72590;SDS011;60625;51.212;5.952;2022-10-22T12:08:51;9.90;;;1.30;;
72590;SDS011;60625;51.212;5.952;2022-10-22T12:19:36;6.50;;;0.80;;
72590;SDS011;60625;51.212;5.952;2022-10-22T12:24:43;9.90;;;1.20;;
72590;SDS011;60625;51.212;5.952;2022-10-22T12:29:46;9.20;;;1.30;;
72590;SDS011;60625;51.212;5.952;2022-10-22T12:34:51;7.10;;;1.10;;
72590;SDS011;60625;51.212;5.952;2022-10-22T12:39:52;12.80;;;1.10;;
72590;SDS011;60625;51.212;5.952;2022-10-22T12:44:55;11.90;;;1.20;;
72590;SDS011;60625;51.212;5.952;2022-10-22T12:49:56;6.40;;;0.90;;
72590;SDS011;60625;51.212;5.952;2022-10-22T12:54:56;9.30;;;1.10;;
72590;SDS011;60625;51.212;5.952;2022-10-22T12:59:57;6.30;;;1.10;;
72590;SDS011;60625;51.212;5.952;2022-10-22T13:10:25;5.50;;;1.10;;
72590;SDS011;60625;51.212;5.952;2022-10-22T13:20:30;6.60;;;0.80;;
72590;SDS011;60625;51.212;5.952;2022-10-22T13:25:33;8.80;;;1.20;;
72590;SDS011;60625;51.212;5.952;2022-10-22T13:30:36;7.30;;;0.90;;
72590;SDS011;60625;51.212;5.952;2022-10-22T13:35:38;7.30;;;1.10;;
72590;SDS011;60625;51.212;5.952;2022-10-22T13:40:38;5.40;;;1.30;;
72590;SDS011;60625;51.212;5.952;2022-10-22T13:45:39;5.20;;;1.30;;
72590;SDS011;60625;51.212;5.952;2022-10-22T13:50:40;6.60;;;0.80;;
72590;SDS011;60625;51.212;5.952;2022-10-22T13:55:41;4.60;;;0.70;;
72590;SDS011;60625;51.212;5.952;2022-10-22T14:00:44;6.00;;;0.90;;
72590;SDS011;60625;51.212;5.952;2022-10-22T14:05:48;4.50;;;0.80;;
72590;SDS011;60625;51.212;5.952;2022-10-22T14:10:49;7.20;;;0.80;;
72590;SDS011;60625;51.212;5.952;2022-10-22T14:15:50;3.60;;;0.60;;
72590;SDS011;60625;51.212;5.952;2022-10-22T14:20:54;9.60;;;1.10;;
72590;SDS011;60625;51.212;5.952;2022-10-22T14:25:57;5.60;;;0.90;;
72590;SDS011;60625;51.212;5.952;2022-10-22T14:30:59;7.40;;;0.90;;
72590;SDS011;60625;51.212;5.952;2022-10-22T14:35:59;6.10;;;0.90;;
72590;SDS011;60625;51.212;5.952;2022-10-22T14:41:00;5.30;;;1.30;;
72590;SDS011;60625;51.212;5.952;2022-10-22T14:46:01;6.50;;;1.00;;
72590;SDS011;60625;51.212;5.952;2022-10-22T14:51:01;6.10;;;0.90;;
72590;SDS011;60625;51.212;5.952;2022-10-22T14:56:03;5.30;;;1.30;;
72590;SDS011;60625;51.212;5.952;2022-10-22T15:01:03;8.50;;;0.70;;
72590;SDS011;60625;51.212;5.952;2022-10-22T15:06:04;5.50;;;0.70;;
72590;SDS011;60625;51.212;5.952;2022-10-22T15:11:08;6.00;;;1.00;;
72590;SDS011;60625;51.212;5.952;2022-10-22T15:16:14;6.00;;;1.00;;
72590;SDS011;60625;51.212;5.952;2022-10-22T15:21:20;6.00;;;0.90;;
72590;SDS011;60625;51.212;5.952;2022-10-22T15:26:21;4.70;;;1.10;;
72590;SDS011;60625;51.212;5.952;2022-10-22T15:31:47;5.60;;;1.00;;
72590;SDS011;60625;51.212;5.952;2022-10-22T15:36:49;4.30;;;0.80;;
72590;SDS011;60625;51.212;5.952;2022-10-22T15:41:51;5.90;;;0.70;;
72590;SDS011;60625;51.212;5.952;2022-10-22T15:46:52;7.30;;;1.80;;
72590;SDS011;60625;51.212;5.952;2022-10-22T15:51:55;9.10;;;2.00;;
72590;SDS011;60625;51.212;5.952;2022-10-22T15:56:58;8.90;;;1.40;;
72590;SDS011;60625;51.212;5.952;2022-10-22T16:01:59;8.80;;;1.30;;
72590;SDS011;60625;51.212;5.952;2022-10-22T16:06:59;6.90;;;1.10;;
72590;SDS011;60625;51.212;5.952;2022-10-22T16:12:00;9.10;;;0.80;;
72590;SDS011;60625;51.212;5.952;2022-10-22T16:17:00;9.30;;;1.40;;
72590;SDS011;60625;51.212;5.952;2022-10-22T16:22:01;5.40;;;1.30;;
72590;SDS011;60625;51.212;5.952;2022-10-22T16:27:03;5.70;;;1.60;;
72590;SDS011;60625;51.212;5.952;2022-10-22T16:32:03;7.70;;;1.20;;
72590;SDS011;60625;51.212;5.952;2022-10-22T16:37:04;7.30;;;1.20;;
72590;SDS011;60625;51.212;5.952;2022-10-22T16:42:09;8.50;;;1.20;;
72590;SDS011;60625;51.212;5.952;2022-10-22T16:47:09;6.50;;;1.40;;
72590;SDS011;60625;51.212;5.952;2022-10-22T16:52:10;8.90;;;2.60;;
72590;SDS011;60625;51.212;5.952;2022-10-22T16:57:11;6.50;;;2.30;;
72590;SDS011;60625;51.212;5.952;2022-10-22T17:02:11;6.80;;;2.50;;
72590;SDS011;60625;51.212;5.952;2022-10-22T17:07:12;8.40;;;2.20;;
72590;SDS011;60625;51.212;5.952;2022-10-22T17:12:12;6.90;;;2.70;;
72590;SDS011;60625;51.212;5.952;2022-10-22T17:17:13;13.10;;;3.20;;
72590;SDS011;60625;51.212;5.952;2022-10-22T17:22:13;8.00;;;2.30;;
72590;SDS011;60625;51.212;5.952;2022-10-22T17:27:13;8.40;;;2.70;;
72590;SDS011;60625;51.212;5.952;2022-10-22T17:32:14;10.20;;;3.00;;
72590;SDS011;60625;51.212;5.952;2022-10-22T17:37:14;7.70;;;2.00;;
72590;SDS011;60625;51.212;5.952;2022-10-22T17:42:15;7.00;;;2.90;;
72590;SDS011;60625;51.212;5.952;2022-10-22T17:47:15;8.30;;;2.40;;
72590;SDS011;60625;51.212;5.952;2022-10-22T17:52:16;5.80;;;2.00;;
72590;SDS011;60625;51.212;5.952;2022-10-22T17:57:16;8.60;;;2.20;;
72590;SDS011;60625;51.212;5.952;2022-10-22T18:02:17;7.00;;;1.90;;
72590;SDS011;60625;51.212;5.952;2022-10-22T18:07:17;7.10;;;2.30;;
72590;SDS011;60625;51.212;5.952;2022-10-22T18:12:20;6.50;;;1.70;;
72590;SDS011;60625;51.212;5.952;2022-10-22T18:17:20;5.50;;;2.00;;
72590;SDS011;60625;51.212;5.952;2022-10-22T18:22:21;6.00;;;2.10;;
72590;SDS011;60625;51.212;5.952;2022-10-22T18:27:21;4.70;;;1.90;;
72590;SDS011;60625;51.212;5.952;2022-10-22T18:32:22;6.90;;;2.00;;
72590;SDS011;60625;51.212;5.952;2022-10-22T18:37:23;7.70;;;1.70;;
72590;SDS011;60625;51.212;5.952;2022-10-22T18:42:23;9.10;;;2.30;;
72590;SDS011;60625;51.212;5.952;2022-10-22T18:47:24;9.30;;;2.70;;
72590;SDS011;60625;51.212;5.952;2022-10-22T18:52:24;8.00;;;3.50;;
72590;SDS011;60625;51.212;5.952;2022-10-22T18:57:24;14.00;;;3.80;;
72590;SDS011;60625;51.212;5.952;2022-10-22T19:02:25;8.70;;;3.40;;
72590;SDS011;60625;51.212;5.952;2022-10-22T19:07:26;8.40;;;3.10;;
72590;SDS011;60625;51.212;5.952;2022-10-22T19:12:26;11.10;;;3.60;;
72590;SDS011;60625;51.212;5.952;2022-10-22T19:17:27;9.90;;;3.50;;
72590;SDS011;60625;51.212;5.952;2022-10-22T19:22:27;6.90;;;2.30;;
72590;SDS011;60625;51.212;5.952;2022-10-22T19:27:28;8.30;;;3.20;;
72590;SDS011;60625;51.212;5.952;2022-10-22T19:32:30;8.00;;;3.90;;
72590;SDS011;60625;51.212;5.952;2022-10-22T19:37:32;8.50;;;3.70;;
72590;SDS011;60625;51.212;5.952;2022-10-22T19:42:35;10.90;;;3.20;;
72590;SDS011;60625;51.212;5.952;2022-10-22T19:47:36;6.50;;;2.70;;
72590;SDS011;60625;51.212;5.952;2022-10-22T19:52:36;8.70;;;3.00;;
72590;SDS011;60625;51.212;5.952;2022-10-22T19:57:37;10.10;;;3.20;;
72590;SDS011;60625;51.212;5.952;2022-10-22T20:02:38;8.30;;;3.30;;
72590;SDS011;60625;51.212;5.952;2022-10-22T20:07:38;6.60;;;2.90;;
72590;SDS011;60625;51.212;5.952;2022-10-22T20:12:39;9.80;;;3.70;;
72590;SDS011;60625;51.212;5.952;2022-10-22T20:17:39;14.10;;;3.70;;
72590;SDS011;60625;51.212;5.952;2022-10-22T20:22:39;10.40;;;3.50;;
72590;SDS011;60625;51.212;5.952;2022-10-22T20:27:42;9.60;;;3.70;;
72590;SDS011;60625;51.212;5.952;2022-10-22T20:32:42;12.60;;;5.30;;
72590;SDS011;60625;51.212;5.952;2022-10-22T20:37:43;12.10;;;5.10;;
72590;SDS011;60625;51.212;5.952;2022-10-22T20:42:43;12.20;;;4.10;;
72590;SDS011;60625;51.212;5.952;2022-10-22T20:47:45;9.10;;;4.00;;
72590;SDS011;60625;51.212;5.952;2022-10-22T20:52:46;10.90;;;3.40;;
72590;SDS011;60625;51.212;5.952;2022-10-22T20:57:48;14.20;;;3.90;;
72590;SDS011;60625;51.212;5.952;2022-10-22T21:02:48;9.90;;;3.30;;
72590;SDS011;60625;51.212;5.952;2022-10-22T21:07:48;12.10;;;3.70;;
72590;SDS011;60625;51.212;5.952;2022-10-22T21:12:49;11.90;;;3.10;;
72590;SDS011;60625;51.212;5.952;2022-10-22T21:17:50;10.30;;;3.30;;
72590;SDS011;60625;51.212;5.952;2022-10-22T21:22:50;11.80;;;3.90;;
72590;SDS011;60625;51.212;5.952;2022-10-22T21:27:50;12.60;;;5.40;;
72590;SDS011;60625;51.212;5.952;2022-10-22T21:32:51;15.80;;;5.20;;
72590;SDS011;60625;51.212;5.952;2022-10-22T21:37:51;12.40;;;5.50;;
72590;SDS011;60625;51.212;5.952;2022-10-22T21:42:52;14.40;;;5.20;;
72590;SDS011;60625;51.212;5.952;2022-10-22T21:47:52;11.20;;;5.20;;
72590;SDS011;60625;51.212;5.952;2022-10-22T21:52:53;15.40;;;4.90;;
72590;SDS011;60625;51.212;5.952;2022-10-22T21:57:53;13.30;;;4.90;;
72590;SDS011;60625;51.212;5.952;2022-10-22T22:02:53;15.00;;;5.10;;
72590;SDS011;60625;51.212;5.952;2022-10-22T22:07:54;11.90;;;5.40;;
72590;SDS011;60625;51.212;5.952;2022-10-22T22:12:55;12.80;;;5.40;;
72590;SDS011;60625;51.212;5.952;2022-10-22T22:17:56;13.10;;;5.50;;
72590;SDS011;60625;51.212;5.952;2022-10-22T22:22:56;12.70;;;5.60;;
72590;SDS011;60625;51.212;5.952;2022-10-22T22:27:57;11.50;;;5.40;;
72590;SDS011;60625;51.212;5.952;2022-10-22T22:32:57;14.10;;;5.90;;
72590;SDS011;60625;51.212;5.952;2022-10-22T22:37:57;13.30;;;5.50;;
72590;SDS011;60625;51.212;5.952;2022-10-22T22:42:58;16.30;;;5.40;;
72590;SDS011;60625;51.212;5.952;2022-10-22T22:47:59;13.40;;;5.00;;
72590;SDS011;60625;51.212;5.952;2022-10-22T22:52:59;10.30;;;5.30;;
72590;SDS011;60625;51.212;5.952;2022-10-22T22:58:00;12.80;;;5.70;;
72590;SDS011;60625;51.212;5.952;2022-10-22T23:03:00;11.00;;;4.80;;
72590;SDS011;60625;51.212;5.952;2022-10-22T23:08:00;15.80;;;5.20;;
72590;SDS011;60625;51.212;5.952;2022-10-22T23:13:01;13.70;;;5.20;;
72590;SDS011;60625;51.212;5.952;2022-10-22T23:18:02;12.10;;;4.80;;
72590;SDS011;60625;51.212;5.952;2022-10-22T23:23:03;11.40;;;4.50;;
72590;SDS011;60625;51.212;5.952;2022-10-22T23:28:05;12.60;;;4.90;;
72590;SDS011;60625;51.212;5.952;2022-10-22T23:33:07;14.60;;;5.30;;
72590;SDS011;60625;51.212;5.952;2022-10-22T23:38:07;15.80;;;6.00;;
72590;SDS011;60625;51.212;5.952;2022-10-22T23:43:08;11.50;;;4.20;;
72590;SDS011;60625;51.212;5.952;2022-10-22T23:48:08;11.70;;;4.40;;
72590;SDS011;60625;51.212;5.952;2022-10-22T23:53:09;11.00;;;4.30;;
72590;SDS011;60625;51.212;5.952;2022-10-22T23:58:10;13.00;;;4.70;;
